Terminal Aerodrome Forecast
Issued by NWS

Home | Current Version | Previous Version | Text Only | Print | Product List | Glossary On
Versions: 1 2 3 4 5 6 7 8 9 10 11 12 13 14 15 16 17 18 19 20 21 22
000
FTUS43 KJKL 212338
TAFSME
TAF
KSME 212338Z 2200/2224 VRB03KT 6SM -SHRA BR VCTS SCT025 OVC060CB
     FM220200 VRB06KT P6SM VCTS SCT020 BKN060CB
     FM220400 VRB06KT P6SM VCSH BKN070
     FM220600 VRB06KT P6SM BKN040
     FM220900 VRB06KT P6SM SCT060=

USA.gov is the U.S. government's official web portal to all federal, state and local government web resources and services.